sensor_id;sensor_type;location;lat;lon;timestamp;pressure;altitude;pressure_sealevel;temperature;humidity
46946;BME280;32679;40.810;14.498;2022-08-23T00:01:17;99463.13;;;22.68;58.60
46946;BME280;32679;40.810;14.498;2022-08-23T00:03:44;99462.09;;;22.74;58.74
46946;BME280;32679;40.810;14.498;2022-08-23T00:06:10;99464.94;;;22.74;57.95
46946;BME280;32679;40.810;14.498;2022-08-23T00:08:36;99457.47;;;22.68;57.82
46946;BME280;32679;40.810;14.498;2022-08-23T00:11:01;99447.50;;;22.63;58.25
46946;BME280;32679;40.810;14.498;2022-08-23T00:13:27;99457.13;;;22.66;57.84
46946;BME280;32679;40.810;14.498;2022-08-23T00:15:53;99453.84;;;22.67;57.61
46946;BME280;32679;40.810;14.498;2022-08-23T00:18:18;99448.94;;;22.68;57.67
46946;BME280;32679;40.810;14.498;2022-08-23T00:20:44;99458.53;;;22.61;57.68
46946;BME280;32679;40.810;14.498;2022-08-23T00:23:10;99452.38;;;22.63;57.51
46946;BME280;32679;40.810;14.498;2022-08-23T00:25:35;99462.75;;;22.57;57.74
46946;BME280;32679;40.810;14.498;2022-08-23T00:28:01;99452.53;;;22.59;57.41
46946;BME280;32679;40.810;14.498;2022-08-23T00:30:27;99456.09;;;22.51;57.26
46946;BME280;32679;40.810;14.498;2022-08-23T00:32:55;99452.94;;;22.48;57.46
46946;BME280;32679;40.810;14.498;2022-08-23T00:35:20;99463.69;;;22.54;57.42
46946;BME280;32679;40.810;14.498;2022-08-23T00:37:46;99469.41;;;22.41;57.43
46946;BME280;32679;40.810;14.498;2022-08-23T00:40:12;99468.31;;;22.38;57.62
46946;BME280;32679;40.810;14.498;2022-08-23T00:48:56;99464.41;;;22.45;57.30
46946;BME280;32679;40.810;14.498;2022-08-23T00:51:24;99462.34;;;22.45;56.93
46946;BME280;32679;40.810;14.498;2022-08-23T00:53:56;99457.66;;;22.52;55.53
46946;BME280;32679;40.810;14.498;2022-08-23T00:56:23;99455.91;;;22.45;55.73
46946;BME280;32679;40.810;14.498;2022-08-23T00:58:49;99457.00;;;22.47;56.01
46946;BME280;32679;40.810;14.498;2022-08-23T01:01:14;99454.44;;;22.40;55.91
46946;BME280;32679;40.810;14.498;2022-08-23T01:03:43;99458.84;;;22.41;56.24
46946;BME280;32679;40.810;14.498;2022-08-23T01:06:13;99458.63;;;22.27;56.48
46946;BME280;32679;40.810;14.498;2022-08-23T01:08:40;99462.16;;;22.18;56.44
46946;BME280;32679;40.810;14.498;2022-08-23T01:11:12;99456.50;;;22.18;56.64
46946;BME280;32679;40.810;14.498;2022-08-23T01:13:48;99465.31;;;22.20;56.90
46946;BME280;32679;40.810;14.498;2022-08-23T01:16:17;99470.97;;;22.20;56.98
46946;BME280;32679;40.810;14.498;2022-08-23T01:18:43;99462.66;;;22.26;56.67
46946;BME280;32679;40.810;14.498;2022-08-23T01:21:19;99463.94;;;22.25;56.55
46946;BME280;32679;40.810;14.498;2022-08-23T01:23:50;99471.44;;;22.18;56.54
46946;BME280;32679;40.810;14.498;2022-08-23T01:26:16;99464.53;;;22.19;56.19
46946;BME280;32679;40.810;14.498;2022-08-23T01:28:43;99463.25;;;22.20;56.16
46946;BME280;32679;40.810;14.498;2022-08-23T01:31:08;99473.69;;;22.23;55.64
46946;BME280;32679;40.810;14.498;2022-08-23T01:33:35;99466.66;;;22.28;55.91
46946;BME280;32679;40.810;14.498;2022-08-23T01:36:00;99467.91;;;22.27;55.76
46946;BME280;32679;40.810;14.498;2022-08-23T01:38:26;99458.00;;;22.32;55.20
46946;BME280;32679;40.810;14.498;2022-08-23T01:40:52;99460.03;;;22.31;55.14
46946;BME280;32679;40.810;14.498;2022-08-23T01:43:18;99453.25;;;22.29;55.37
46946;BME280;32679;40.810;14.498;2022-08-23T01:45:44;99457.94;;;22.22;55.64
46946;BME280;32679;40.810;14.498;2022-08-23T01:48:10;99445.16;;;22.18;55.83
46946;BME280;32679;40.810;14.498;2022-08-23T01:50:35;99452.28;;;22.22;55.73
46946;BME280;32679;40.810;14.498;2022-08-23T01:53:00;99449.66;;;22.28;54.93
46946;BME280;32679;40.810;14.498;2022-08-23T01:55:26;99450.75;;;22.31;54.60
46946;BME280;32679;40.810;14.498;2022-08-23T01:57:53;99456.09;;;22.29;54.70
46946;BME280;32679;40.810;14.498;2022-08-23T02:00:20;99462.66;;;22.26;55.29
46946;BME280;32679;40.810;14.498;2022-08-23T02:02:46;99458.25;;;22.25;55.28
46946;BME280;32679;40.810;14.498;2022-08-23T02:05:11;99461.28;;;22.30;55.12
46946;BME280;32679;40.810;14.498;2022-08-23T02:07:36;99462.66;;;22.26;54.96
46946;BME280;32679;40.810;14.498;2022-08-23T02:10:03;99465.31;;;22.20;55.10
46946;BME280;32679;40.810;14.498;2022-08-23T02:12:28;99465.31;;;22.20;54.94
46946;BME280;32679;40.810;14.498;2022-08-23T02:14:54;99461.38;;;22.17;55.33
46946;BME280;32679;40.810;14.498;2022-08-23T02:17:19;99467.16;;;22.14;55.88
46946;BME280;32679;40.810;14.498;2022-08-23T02:19:46;99470.78;;;22.14;56.16
46946;BME280;32679;40.810;14.498;2022-08-23T02:22:11;99470.09;;;22.10;55.88
46946;BME280;32679;40.810;14.498;2022-08-23T02:24:43;99473.94;;;22.04;56.50
46946;BME280;32679;40.810;14.498;2022-08-23T02:27:08;99478.94;;;22.00;56.82
46946;BME280;32679;40.810;14.498;2022-08-23T02:29:34;99477.03;;;21.96;56.88
46946;BME280;32679;40.810;14.498;2022-08-23T02:32:00;99479.47;;;21.85;57.19
46946;BME280;32679;40.810;14.498;2022-08-23T02:34:25;99477.19;;;21.80;57.55
46946;BME280;32679;40.810;14.498;2022-08-23T02:36:51;99471.19;;;21.78;58.10
46946;BME280;32679;40.810;14.498;2022-08-23T02:39:16;99478.53;;;21.88;57.72
46946;BME280;32679;40.810;14.498;2022-08-23T02:41:42;99475.13;;;21.93;57.20
46946;BME280;32679;40.810;14.498;2022-08-23T02:44:08;99470.38;;;21.90;57.14
46946;BME280;32679;40.810;14.498;2022-08-23T02:46:34;99478.09;;;21.90;57.37
46946;BME280;32679;40.810;14.498;2022-08-23T02:48:59;99476.38;;;21.92;57.92
46946;BME280;32679;40.810;14.498;2022-08-23T02:51:25;99479.31;;;21.89;57.73
46946;BME280;32679;40.810;14.498;2022-08-23T02:53:51;99482.97;;;21.77;58.19
46946;BME280;32679;40.810;14.498;2022-08-23T02:56:16;99481.06;;;21.74;57.42
46946;BME280;32679;40.810;14.498;2022-08-23T02:58:42;99474.28;;;21.71;57.44
46946;BME280;32679;40.810;14.498;2022-08-23T03:01:16;99482.66;;;21.62;57.53
46946;BME280;32679;40.810;14.498;2022-08-23T03:03:42;99488.25;;;21.53;57.21
46946;BME280;32679;40.810;14.498;2022-08-23T03:06:07;99491.97;;;21.50;57.42
46946;BME280;32679;40.810;14.498;2022-08-23T03:08:32;99490.16;;;21.43;57.39
46946;BME280;32679;40.810;14.498;2022-08-23T03:10:58;99488.44;;;21.45;58.15
46946;BME280;32679;40.810;14.498;2022-08-23T03:13:26;99493.91;;;21.53;58.46
46946;BME280;32679;40.810;14.498;2022-08-23T03:15:51;99499.78;;;21.58;58.39
46946;BME280;32679;40.810;14.498;2022-08-23T03:18:19;99501.09;;;21.79;57.48
46946;BME280;32679;40.810;14.498;2022-08-23T03:20:44;99497.50;;;21.79;57.46
46946;BME280;32679;40.810;14.498;2022-08-23T03:23:12;99500.53;;;21.84;57.19
46946;BME280;32679;40.810;14.498;2022-08-23T03:25:37;99498.28;;;21.79;57.28
46946;BME280;32679;40.810;14.498;2022-08-23T03:28:04;99501.75;;;21.83;57.37
46946;BME280;32679;40.810;14.498;2022-08-23T03:30:29;99498.84;;;21.74;57.63
46946;BME280;32679;40.810;14.498;2022-08-23T03:32:55;99503.38;;;21.71;58.09
46946;BME280;32679;40.810;14.498;2022-08-23T03:35:20;99497.25;;;21.73;57.50
46946;BME280;32679;40.810;14.498;2022-08-23T03:37:46;99501.53;;;21.78;57.68
46946;BME280;32679;40.810;14.498;2022-08-23T03:40:11;99495.44;;;21.79;57.92
46946;BME280;32679;40.810;14.498;2022-08-23T03:42:37;99497.34;;;21.82;57.78
46946;BME280;32679;40.810;14.498;2022-08-23T03:45:08;99495.81;;;21.68;58.67
46946;BME280;32679;40.810;14.498;2022-08-23T03:47:33;99504.84;;;21.76;59.05
46946;BME280;32679;40.810;14.498;2022-08-23T03:49:59;99493.88;;;21.65;59.04
46946;BME280;32679;40.810;14.498;2022-08-23T03:52:24;99500.56;;;21.59;59.45
46946;BME280;32679;40.810;14.498;2022-08-23T03:54:50;99511.88;;;21.46;59.99
46946;BME280;32679;40.810;14.498;2022-08-23T03:57:15;99505.34;;;21.36;60.15
46946;BME280;32679;40.810;14.498;2022-08-23T03:59:40;99506.25;;;21.33;60.23
46946;BME280;32679;40.810;14.498;2022-08-23T04:02:06;99505.91;;;21.31;60.44
46946;BME280;32679;40.810;14.498;2022-08-23T04:04:32;99512.88;;;21.27;60.71
46946;BME280;32679;40.810;14.498;2022-08-23T04:06:57;99508.03;;;21.27;60.47
46946;BME280;32679;40.810;14.498;2022-08-23T04:09:23;99518.97;;;21.25;60.46
46946;BME280;32679;40.810;14.498;2022-08-23T04:11:48;99522.50;;;21.29;60.11
46946;BME280;32679;40.810;14.498;2022-08-23T04:14:14;99520.84;;;21.32;60.38
46946;BME280;32679;40.810;14.498;2022-08-23T04:16:39;99521.28;;;21.30;60.58
46946;BME280;32679;40.810;14.498;2022-08-23T04:19:09;99518.25;;;21.37;60.26
46946;BME280;32679;40.810;14.498;2022-08-23T04:21:37;99523.66;;;21.44;60.56
46946;BME280;32679;40.810;14.498;2022-08-23T04:24:03;99525.47;;;21.38;60.62
46946;BME280;32679;40.810;14.498;2022-08-23T04:26:28;99532.94;;;21.45;60.02
46946;BME280;32679;40.810;14.498;2022-08-23T04:28:54;99534.97;;;21.44;60.10
46946;BME280;32679;40.810;14.498;2022-08-23T04:31:19;99534.88;;;21.61;59.09
46946;BME280;32679;40.810;14.498;2022-08-23T04:33:45;99539.28;;;21.62;59.00
46946;BME280;32679;40.810;14.498;2022-08-23T04:36:11;99541.66;;;21.63;58.30
46946;BME280;32679;40.810;14.498;2022-08-23T04:38:36;99546.97;;;21.61;58.19
46946;BME280;32679;40.810;14.498;2022-08-23T04:41:02;99549.25;;;21.66;57.82
46946;BME280;32679;40.810;14.498;2022-08-23T04:43:46;99546.97;;;21.74;57.95
46946;BME280;32679;40.810;14.498;2022-08-23T04:46:12;99547.84;;;21.96;57.66
46946;BME280;32679;40.810;14.498;2022-08-23T04:48:43;99559.03;;;22.47;56.10
46946;BME280;32679;40.810;14.498;2022-08-23T04:51:09;99554.56;;;22.94;54.40
46946;BME280;32679;40.810;14.498;2022-08-23T04:53:34;99557.84;;;23.14;53.91
46946;BME280;32679;40.810;14.498;2022-08-23T04:56:01;99559.88;;;23.45;52.97
46946;BME280;32679;40.810;14.498;2022-08-23T04:58:27;99556.75;;;23.83;51.60
46946;BME280;32679;40.810;14.498;2022-08-23T05:00:53;99562.13;;;23.81;51.34
46946;BME280;32679;40.810;14.498;2022-08-23T05:03:19;99567.97;;;23.56;51.45
46946;BME280;32679;40.810;14.498;2022-08-23T05:05:44;99566.31;;;23.36;51.95
46946;BME280;32679;40.810;14.498;2022-08-23T05:08:09;99561.59;;;23.73;51.32
46946;BME280;32679;40.810;14.498;2022-08-23T05:10:35;99558.19;;;23.88;51.12
46946;BME280;32679;40.810;14.498;2022-08-23T05:13:00;99572.91;;;24.04;50.81
46946;BME280;32679;40.810;14.498;2022-08-23T05:15:25;99575.28;;;24.15;50.27
46946;BME280;32679;40.810;14.498;2022-08-23T05:17:51;99570.78;;;24.54;49.50
46946;BME280;32679;40.810;14.498;2022-08-23T05:20:16;99569.69;;;24.52;48.54
46946;BME280;32679;40.810;14.498;2022-08-23T05:22:41;99573.31;;;24.43;48.55
46946;BME280;32679;40.810;14.498;2022-08-23T05:25:07;99565.56;;;24.62;48.94
46946;BME280;32679;40.810;14.498;2022-08-23T05:27:32;99577.56;;;24.39;49.13
46946;BME280;32679;40.810;14.498;2022-08-23T05:29:58;99581.63;;;24.19;48.95
46946;BME280;32679;40.810;14.498;2022-08-23T05:32:23;99580.91;;;23.97;49.17
46946;BME280;32679;40.810;14.498;2022-08-23T05:34:48;99574.09;;;23.85;49.96
46946;BME280;32679;40.810;14.498;2022-08-23T05:37:14;99577.56;;;23.80;50.40
46946;BME280;32679;40.810;14.498;2022-08-23T05:39:40;99585.41;;;23.67;50.63
46946;BME280;32679;40.810;14.498;2022-08-23T05:42:06;99588.34;;;23.32;52.30
46946;BME280;32679;40.810;14.498;2022-08-23T05:44:32;99587.41;;;23.97;50.44
46946;BME280;32679;40.810;14.498;2022-08-23T05:47:00;99594.97;;;25.14;48.25
46946;BME280;32679;40.810;14.498;2022-08-23T05:49:26;99594.31;;;25.10;48.90
46946;BME280;32679;40.810;14.498;2022-08-23T05:51:51;99591.97;;;26.02;46.97
46946;BME280;32679;40.810;14.498;2022-08-23T05:54:16;99589.16;;;27.04;45.50
46946;BME280;32679;40.810;14.498;2022-08-23T05:56:42;99598.47;;;27.28;43.73
46946;BME280;32679;40.810;14.498;2022-08-23T05:59:08;99599.81;;;27.77;43.42
46946;BME280;32679;40.810;14.498;2022-08-23T06:01:34;99604.41;;;28.39;41.45
46946;BME280;32679;40.810;14.498;2022-08-23T06:04:05;99601.72;;;28.97;38.19
46946;BME280;32679;40.810;14.498;2022-08-23T06:06:31;99609.03;;;29.24;38.31
46946;BME280;32679;40.810;14.498;2022-08-23T06:08:59;99612.34;;;29.43;36.99
46946;BME280;32679;40.810;14.498;2022-08-23T06:11:26;99609.59;;;29.54;37.61
46946;BME280;32679;40.810;14.498;2022-08-23T06:13:55;99609.56;;;29.80;35.07
46946;BME280;32679;40.810;14.498;2022-08-23T06:16:31;99603.75;;;30.06;35.56
46946;BME280;32679;40.810;14.498;2022-08-23T06:19:00;99613.19;;;30.12;35.88
46946;BME280;32679;40.810;14.498;2022-08-23T06:21:29;99613.09;;;30.01;34.99
46946;BME280;32679;40.810;14.498;2022-08-23T06:23:54;99617.91;;;30.15;34.71
46946;BME280;32679;40.810;14.498;2022-08-23T06:26:21;99613.72;;;30.65;34.53
46946;BME280;32679;40.810;14.498;2022-08-23T06:28:48;99613.59;;;30.37;35.23
46946;BME280;32679;40.810;14.498;2022-08-23T06:31:14;99613.50;;;30.25;35.23
46946;BME280;32679;40.810;14.498;2022-08-23T06:33:40;99611.13;;;30.18;35.30
46946;BME280;32679;40.810;14.498;2022-08-23T06:36:07;99621.66;;;30.33;35.52
46946;BME280;32679;40.810;14.498;2022-08-23T06:38:33;99617.63;;;30.62;34.19
46946;BME280;32679;40.810;14.498;2022-08-23T06:40:59;99629.13;;;30.67;34.93
46946;BME280;32679;40.810;14.498;2022-08-23T06:43:25;99622.03;;;31.22;34.87
46946;BME280;32679;40.810;14.498;2022-08-23T06:45:51;99629.41;;;31.68;34.37
46946;BME280;32679;40.810;14.498;2022-08-23T06:48:17;99623.38;;;32.11;33.37
46946;BME280;32679;40.810;14.498;2022-08-23T06:50:42;99617.88;;;32.24;32.34
46946;BME280;32679;40.810;14.498;2022-08-23T06:53:07;99624.22;;;32.81;31.80
46946;BME280;32679;40.810;14.498;2022-08-23T06:55:33;99629.81;;;32.62;32.09
46946;BME280;32679;40.810;14.498;2022-08-23T06:57:58;99630.25;;;32.89;31.68
46946;BME280;32679;40.810;14.498;2022-08-23T07:00:23;99634.69;;;32.90;31.14
46946;BME280;32679;40.810;14.498;2022-08-23T07:02:49;99624.59;;;33.13;31.37
46946;BME280;32679;40.810;14.498;2022-08-23T07:05:15;99629.13;;;33.03;30.39
46946;BME280;32679;40.810;14.498;2022-08-23T07:07:41;99634.31;;;33.10;31.44
46946;BME280;32679;40.810;14.498;2022-08-23T07:10:06;99623.50;;;33.63;30.14
46946;BME280;32679;40.810;14.498;2022-08-23T07:12:32;99621.75;;;34.14;29.17
46946;BME280;32679;40.810;14.498;2022-08-23T07:14:57;99623.63;;;33.76;28.08
46946;BME280;32679;40.810;14.498;2022-08-23T07:17:22;99621.63;;;33.66;28.55
46946;BME280;32679;40.810;14.498;2022-08-23T07:19:49;99629.25;;;34.23;26.76
46946;BME280;32679;40.810;14.498;2022-08-23T07:22:14;99631.38;;;33.62;26.83
46946;BME280;32679;40.810;14.498;2022-08-23T07:24:40;99630.03;;;33.22;27.36
46946;BME280;32679;40.810;14.498;2022-08-23T07:27:07;99626.63;;;33.65;27.40
46946;BME280;32679;40.810;14.498;2022-08-23T07:29:34;99631.19;;;33.08;29.42
46946;BME280;32679;40.810;14.498;2022-08-23T07:32:00;99633.88;;;32.95;29.64
46946;BME280;32679;40.810;14.498;2022-08-23T07:34:27;99634.69;;;32.90;27.77
46946;BME280;32679;40.810;14.498;2022-08-23T07:36:53;99636.53;;;32.93;28.49
46946;BME280;32679;40.810;14.498;2022-08-23T07:39:19;99637.59;;;33.72;27.75
46946;BME280;32679;40.810;14.498;2022-08-23T07:41:44;99647.78;;;32.91;28.22
46946;BME280;32679;40.810;14.498;2022-08-23T07:44:11;99644.34;;;32.86;28.92
46946;BME280;32679;40.810;14.498;2022-08-23T07:46:37;99638.09;;;32.82;28.17
46946;BME280;32679;40.810;14.498;2022-08-23T07:49:04;99642.56;;;32.78;29.08
46946;BME280;32679;40.810;14.498;2022-08-23T07:51:30;99648.44;;;32.55;29.72
46946;BME280;32679;40.810;14.498;2022-08-23T07:53:56;99649.53;;;33.05;29.24
46946;BME280;32679;40.810;14.498;2022-08-23T07:56:22;99650.41;;;32.89;28.83
46946;BME280;32679;40.810;14.498;2022-08-23T07:58:47;99659.16;;;32.44;28.96
46946;BME280;32679;40.810;14.498;2022-08-23T08:01:18;99650.16;;;32.75;28.59
46946;BME280;32679;40.810;14.498;2022-08-23T08:03:45;99654.28;;;32.97;28.86
46946;BME280;32679;40.810;14.498;2022-08-23T08:06:12;99657.00;;;32.72;29.41
46946;BME280;32679;40.810;14.498;2022-08-23T08:08:38;99657.47;;;32.88;29.27
46946;BME280;32679;40.810;14.498;2022-08-23T08:11:05;99660.81;;;33.08;29.34
46946;BME280;32679;40.810;14.498;2022-08-23T08:13:31;99658.81;;;32.70;28.76
46946;BME280;32679;40.810;14.498;2022-08-23T08:15:56;99664.53;;;32.98;28.45
46946;BME280;32679;40.810;14.498;2022-08-23T08:18:22;99662.53;;;33.23;28.56
46946;BME280;32679;40.810;14.498;2022-08-23T08:20:47;99660.94;;;34.04;27.25
46946;BME280;32679;40.810;14.498;2022-08-23T08:23:13;99662.88;;;33.55;27.63
46946;BME280;32679;40.810;14.498;2022-08-23T08:25:38;99660.78;;;33.14;29.35
46946;BME280;32679;40.810;14.498;2022-08-23T08:28:03;99659.50;;;32.12;30.04
46946;BME280;32679;40.810;14.498;2022-08-23T08:30:29;99653.16;;;33.11;28.97
46946;BME280;32679;40.810;14.498;2022-08-23T08:32:54;99652.94;;;34.16;27.70
46946;BME280;32679;40.810;14.498;2022-08-23T08:35:20;99658.72;;;34.16;27.48
46946;BME280;32679;40.810;14.498;2022-08-23T08:37:45;99658.31;;;33.29;28.53
46946;BME280;32679;40.810;14.498;2022-08-23T08:40:11;99654.59;;;32.88;29.22
46946;BME280;32679;40.810;14.498;2022-08-23T08:45:11;99647.25;;;32.92;29.70
46946;BME280;32679;40.810;14.498;2022-08-23T08:50:57;99650.34;;;33.00;28.47
46946;BME280;32679;40.810;14.498;2022-08-23T08:53:10;99654.44;;;33.93;28.40
46946;BME280;32679;40.810;14.498;2022-08-23T08:55:44;99654.66;;;34.55;26.60
46946;BME280;32679;40.810;14.498;2022-08-23T08:58:12;99660.94;;;35.59;26.00
46946;BME280;32679;40.810;14.498;2022-08-23T09:00:39;99650.78;;;34.71;26.67
46946;BME280;32679;40.810;14.498;2022-08-23T09:03:13;99647.44;;;34.43;27.14
46946;BME280;32679;40.810;14.498;2022-08-23T09:05:43;99652.66;;;33.89;27.55
46946;BME280;32679;40.810;14.498;2022-08-23T09:10:52;99668.22;;;36.11;24.75
46946;BME280;32679;40.810;14.498;2022-08-23T09:15:47;99669.44;;;36.61;24.06
46946;BME280;32679;40.810;14.498;2022-08-23T09:18:18;99664.28;;;36.54;24.52
46946;BME280;32679;40.810;14.498;2022-08-23T09:20:46;99665.47;;;35.86;24.68
46946;BME280;32679;40.810;14.498;2022-08-23T09:23:19;99656.31;;;35.69;25.63
46946;BME280;32679;40.810;14.498;2022-08-23T09:25:53;99655.75;;;36.03;25.18
46946;BME280;32679;40.810;14.498;2022-08-23T09:28:18;99659.84;;;36.92;24.03
46946;BME280;32679;40.810;14.498;2022-08-23T09:30:46;99666.25;;;37.12;23.73
46946;BME280;32679;40.810;14.498;2022-08-23T09:33:19;99670.50;;;37.24;23.77
46946;BME280;32679;40.810;14.498;2022-08-23T09:36:00;99674.44;;;36.73;24.14
46946;BME280;32679;40.810;14.498;2022-08-23T09:38:27;99675.38;;;36.23;24.36
46946;BME280;32679;40.810;14.498;2022-08-23T09:40:54;99664.44;;;35.52;26.30
46946;BME280;32679;40.810;14.498;2022-08-23T09:43:20;99665.81;;;34.39;28.06
46946;BME280;32679;40.810;14.498;2022-08-23T09:51:02;99668.91;;;35.85;26.54
46946;BME280;32679;40.810;14.498;2022-08-23T09:53:29;99665.31;;;36.11;26.43
46946;BME280;32679;40.810;14.498;2022-08-23T09:56:08;99662.69;;;36.13;26.46
46946;BME280;32679;40.810;14.498;2022-08-23T09:58:36;99672.13;;;36.13;27.28
46946;BME280;32679;40.810;14.498;2022-08-23T10:03:47;99668.78;;;35.77;26.36
46946;BME280;32679;40.810;14.498;2022-08-23T10:06:30;99671.00;;;33.56;30.33
46946;BME280;32679;40.810;14.498;2022-08-23T10:08:59;99661.59;;;33.56;29.73
46946;BME280;32679;40.810;14.498;2022-08-23T10:11:40;99660.63;;;33.42;30.70
46946;BME280;32679;40.810;14.498;2022-08-23T10:14:09;99657.47;;;33.40;31.27
46946;BME280;32679;40.810;14.498;2022-08-23T10:21:46;99657.09;;;32.27;32.53
46946;BME280;32679;40.810;14.498;2022-08-23T10:24:21;99662.75;;;32.72;32.97
46946;BME280;32679;40.810;14.498;2022-08-23T10:30:11;99664.47;;;33.09;32.23
46946;BME280;32679;40.810;14.498;2022-08-23T10:32:43;99664.72;;;31.97;33.95
46946;BME280;32679;40.810;14.498;2022-08-23T10:42:52;99665.19;;;31.39;35.32
46946;BME280;32679;40.810;14.498;2022-08-23T10:45:23;99664.38;;;31.27;35.36
46946;BME280;32679;40.810;14.498;2022-08-23T10:50:27;99663.13;;;31.56;35.25
46946;BME280;32679;40.810;14.498;2022-08-23T10:53:03;99660.25;;;31.73;34.63
46946;BME280;32679;40.810;14.498;2022-08-23T10:55:31;99666.53;;;31.66;34.29
46946;BME280;32679;40.810;14.498;2022-08-23T10:58:10;99656.75;;;31.19;36.70
46946;BME280;32679;40.810;14.498;2022-08-23T11:00:37;99651.00;;;31.13;37.37
46946;BME280;32679;40.810;14.498;2022-08-23T11:05:38;99662.56;;;31.41;37.09
46946;BME280;32679;40.810;14.498;2022-08-23T11:08:09;99644.31;;;31.72;36.16
46946;BME280;32679;40.810;14.498;2022-08-23T11:13:05;99651.63;;;32.35;35.23
46946;BME280;32679;40.810;14.498;2022-08-23T11:15:54;99648.94;;;32.54;35.47
46946;BME280;32679;40.810;14.498;2022-08-23T11:21:00;99653.44;;;33.54;33.09
46946;BME280;32679;40.810;14.498;2022-08-23T11:23:40;99647.41;;;33.88;32.36
46946;BME280;32679;40.810;14.498;2022-08-23T11:26:07;99648.63;;;34.04;32.02
46946;BME280;32679;40.810;14.498;2022-08-23T11:28:43;99639.41;;;34.05;31.65
46946;BME280;32679;40.810;14.498;2022-08-23T11:34:03;99642.44;;;33.53;34.36
46946;BME280;32679;40.810;14.498;2022-08-23T11:36:30;99634.53;;;33.18;34.37
46946;BME280;32679;40.810;14.498;2022-08-23T11:41:26;99637.63;;;33.25;35.34
46946;BME280;32679;40.810;14.498;2022-08-23T12:01:39;99622.84;;;33.46;33.64
46946;BME280;32679;40.810;14.498;2022-08-23T12:04:08;99625.47;;;34.09;32.24
46946;BME280;32679;40.810;14.498;2022-08-23T12:06:46;99620.09;;;34.44;31.47
46946;BME280;32679;40.810;14.498;2022-08-23T12:16:59;99609.13;;;34.85;32.59
46946;BME280;32679;40.810;14.498;2022-08-23T12:19:37;99599.97;;;34.38;34.34
46946;BME280;32679;40.810;14.498;2022-08-23T12:22:05;99605.00;;;33.47;37.35
46946;BME280;32679;40.810;14.498;2022-08-23T12:24:39;99609.31;;;33.24;38.48
46946;BME280;32679;40.810;14.498;2022-08-23T12:32:40;99593.75;;;33.08;38.83
46946;BME280;32679;40.810;14.498;2022-08-23T12:37:55;99589.25;;;32.60;39.92
46946;BME280;32679;40.810;14.498;2022-08-23T12:40:30;99588.50;;;32.43;40.26
46946;BME280;32679;40.810;14.498;2022-08-23T12:43:02;99590.66;;;32.20;40.78
46946;BME280;32679;40.810;14.498;2022-08-23T12:45:34;99581.00;;;32.12;40.48
46946;BME280;32679;40.810;14.498;2022-08-23T12:48:01;99575.56;;;31.86;41.48
46946;BME280;32679;40.810;14.498;2022-08-23T12:50:31;99578.69;;;31.99;41.26
46946;BME280;32679;40.810;14.498;2022-08-23T12:53:06;99577.91;;;31.87;41.41
46946;BME280;32679;40.810;14.498;2022-08-23T12:55:33;99574.53;;;31.44;40.56
46946;BME280;32679;40.810;14.498;2022-08-23T12:57:59;99575.31;;;31.84;38.98
46946;BME280;32679;40.810;14.498;2022-08-23T13:00:35;99571.38;;;31.53;38.71
46946;BME280;32679;40.810;14.498;2022-08-23T13:03:05;99572.97;;;31.54;39.63
46946;BME280;32679;40.810;14.498;2022-08-23T13:05:40;99561.44;;;31.65;39.18
46946;BME280;32679;40.810;14.498;2022-08-23T13:08:09;99566.66;;;31.72;37.48
46946;BME280;32679;40.810;14.498;2022-08-23T13:10:36;99570.88;;;31.49;36.65
46946;BME280;32679;40.810;14.498;2022-08-23T13:13:03;99561.19;;;31.35;36.28
46946;BME280;32679;40.810;14.498;2022-08-23T13:18:31;99567.94;;;31.15;36.96
46946;BME280;32679;40.810;14.498;2022-08-23T13:21:18;99580.47;;;31.12;36.97
46946;BME280;32679;40.810;14.498;2022-08-23T13:23:54;99579.16;;;31.02;36.11
46946;BME280;32679;40.810;14.498;2022-08-23T13:26:24;99591.41;;;30.97;36.70
46946;BME280;32679;40.810;14.498;2022-08-23T13:29:05;99603.41;;;30.90;36.93
46946;BME280;32679;40.810;14.498;2022-08-23T13:37:00;99608.06;;;30.27;39.16
46946;BME280;32679;40.810;14.498;2022-08-23T13:39:26;99601.78;;;30.23;39.12
46946;BME280;32679;40.810;14.498;2022-08-23T13:41:54;99589.19;;;29.72;40.51
46946;BME280;32679;40.810;14.498;2022-08-23T13:44:19;99593.97;;;29.29;46.09
46946;BME280;32679;40.810;14.498;2022-08-23T13:46:45;99586.34;;;28.74;49.30
46946;BME280;32679;40.810;14.498;2022-08-23T13:49:17;99586.16;;;28.57;49.92
46946;BME280;32679;40.810;14.498;2022-08-23T13:54:24;99592.44;;;28.61;49.36
46946;BME280;32679;40.810;14.498;2022-08-23T13:56:51;99588.28;;;28.62;48.82
46946;BME280;32679;40.810;14.498;2022-08-23T13:59:24;99591.50;;;28.50;48.66
46946;BME280;32679;40.810;14.498;2022-08-23T14:01:52;99581.84;;;28.47;49.05
46946;BME280;32679;40.810;14.498;2022-08-23T14:04:18;99588.88;;;28.66;48.47
46946;BME280;32679;40.810;14.498;2022-08-23T14:06:43;99596.38;;;28.64;48.45
46946;BME280;32679;40.810;14.498;2022-08-23T14:09:10;99595.56;;;28.84;47.75
46946;BME280;32679;40.810;14.498;2022-08-23T14:11:35;99583.41;;;28.89;47.73
46946;BME280;32679;40.810;14.498;2022-08-23T14:14:01;99582.25;;;29.01;46.08
46946;BME280;32679;40.810;14.498;2022-08-23T14:16:27;99594.09;;;29.14;45.65
46946;BME280;32679;40.810;14.498;2022-08-23T14:18:54;99593.91;;;29.23;45.96
46946;BME280;32679;40.810;14.498;2022-08-23T14:21:21;99593.19;;;29.29;45.91
46946;BME280;32679;40.810;14.498;2022-08-23T14:23:46;99592.28;;;29.43;45.17
46946;BME280;32679;40.810;14.498;2022-08-23T14:26:16;99600.88;;;29.43;44.58
46946;BME280;32679;40.810;14.498;2022-08-23T14:28:43;99594.00;;;29.35;44.64
46946;BME280;32679;40.810;14.498;2022-08-23T14:31:08;99593.19;;;29.29;45.21
46946;BME280;32679;40.810;14.498;2022-08-23T14:33:34;99590.94;;;29.12;44.64